Mannsville, Oklahoma
Current Conditions -  °F | °C
As of 3:55 PM on Monday 22 Dec 2014 (Local Time) from KADM Reporting Station
Clear Clear  
Wind Chill: 16°   Ceiling: Unl
Heat Index: 16°   Visibility: 10mi
Dew Point:   Wind: 9mph
Humidity: 55%   Direction: 310°NW
Pressure: 29.61"   Gusts: NA
Location:  34.19°N, 96.88°W
Report Text: KADM 222155Z 31008KT 10SM SKC 16/07 A2961
Loading
Personal Weather Stations






























Interactive Weather Map New forecast layout! Learn more

10-Day Weather Forecast

Advertisements
Track Severe Weather on mobile